Weather observations for the past three days for
Salisbury, Salisbury-Ocean City Wicomico County Regional Airport
Imperial (Metric)
Date Time (edt) Wind (mph) Vis. (mi.) Weather Sky Cond. Temperature (ºF) Relative Humidity Wind Chill (°F) Heat Index (°F) Pressure Precipitation (in)
Air Dwpt 6 hour altimeter (in) sea level (mb) 1 hr 3 hr 6 hr
Max. Min.
04 23:54 S 10 10.00 Fair CLR 61 52 72% 29.91 1013.0
04 22:54 S 9 10.00 Fair CLR 61 53.1 75% 29.91 1012.9
04 21:54 S 8 10.00 Fair CLR 61 52 72% 29.91 1013.0
04 20:54 S 8 10.00 Fair CLR 62.1 51.1 67% 29.9 1012.7
04 19:54 S 8 10.00 Fair CLR 64.9 48 75 64.9 54% 29.89 1012.4
04 18:54 S 12 10.00 Fair CLR 69.1 48 47% 29.88 1012.2
04 17:54 SW 16 G 25 10.00 Fair CLR 73.9 37 26% 29.89 1012.3
04 16:54 S 14 10.00 Fair CLR 75 39 27% 77 29.89 1012.4
04 15:54 SW 13 G 24 10.00 Fair CLR 73.9 37.9 27% 29.9 1012.8
04 14:54 W 16 G 23 10.00 Fair CLR 73.9 36 25% 29.92 1013.3
04 13:54 W 13 G 20 10.00 Fair CLR 73.9 35.1 73.9 55 24% 29.93 1013.8
04 12:54 SW 14 G 23 10.00 Fair CLR 72 36 27% 29.95 1014.4
04 11:54 SW 9 G 18 10.00 Fair CLR 70 39.9 34% 29.96 1014.7
04 10:54 SW 10 G 21 10.00 Fair CLR 68 42.1 39% 29.98 1015.3
04 09:54 S 13 10.00 Fair CLR 64.9 43 45% 29.98 1015.5
04 08:54 S 13 10.00 Fair CLR 60.1 46 60% 30 1016.2
04 07:54 S 7 10.00 Partly Cloudy SCT100 55 46.9 55 45 74% 30.02 1016.6
04 06:54 S 5 10.00 Overcast OVC110 50 45 83% 49 30.03 1017.0
04 05:54 S 7 10.00 Mostly Cloudy BKN120 48.9 44.1 83% 46 30.02 1016.7
04 04:54 S 6 10.00 Mostly Cloudy BKN120 48.9 43 80% 47 30.03 1017.1
04 03:54 S 8 10.00 Fair CLR 48 42.1 80% 45 30.04 1017.4
04 02:54 S 8 10.00 Fair CLR 46 39.9 79% 42 30.04 1017.4
04 01:54 S 9 10.00 Fair CLR 45 36 53.1 41 71% 41 30.04 1017.3
04 00:54 S 6 10.00 Fair CLR 43 34 71% 40 30.04 1017.3
03 23:54 S 7 10.00 Fair CLR 44.1 32 63% 41 30.03 1017.0
03 22:54 Calm 10.00 Fair CLR 45 34 66% 30.02 1016.7
03 21:54 Calm 10.00 Fair CLR 44.1 34 68% 30.02 1016.7
03 20:54 Calm 10.00 Fair CLR 46.9 34 61% 30 1016.2
03 19:54 S 3 10.00 Fair CLR 54 30.9 60.1 54 42% 29.98 1015.4
03 18:54 W 8 G 17 10.00 Fair CLR 57.9 27 31% 29.98 1015.2
03 17:54 W 10 G 23 10.00 Fair CLR 59 26.1 28% 29.98 1015.3
03 16:54 NW 16 G 26 10.00 Fair CLR 60.1 25 26% 29.97 1014.9
03 15:54 NW 18 G 30 10.00 Fair CLR 59 24.1 26% 29.98 1015.4
03 14:54 W 17 G 28 10.00 Fair CLR 57.9 24.1 27% 29.99 1015.6
03 13:54 NW 15 G 33 10.00 Fair CLR 57.9 24.1 59 46.9 27% 30 1015.9
03 12:54 W 15 G 30 10.00 Fair CLR 55.9 25 30% 30 1016.1
03 11:54 NW 16 G 31 10.00 A Few Clouds FEW060 55 25 31% 30.01 1016.3
03 10:54 W 18 G 29 10.00 Partly Cloudy SCT055 53.1 24.1 32% 30 1016.2
03 09:54 W 13 G 26 10.00 A Few Clouds FEW055 52 27 38% 30 1016.1
03 08:54 NW 14 G 26 10.00 Fair CLR 50 30 46% 45 29.99 1015.8
03 07:54 NW 15 G 24 10.00 Fair CLR 46.9 32 48.9 44.1 56% 41 29.98 1015.4
03 06:54 NW 12 10.00 Fair CLR 45 33.1 63% 40 29.96 1014.8
03 05:54 W 7 G 17 10.00 Fair CLR 45 33.1 63% 42 29.93 1013.8
03 04:54 NW 7 10.00 Fair CLR 45 33.1 63% 42 29.92 1013.2
03 03:54 W 6 10.00 Partly Cloudy SCT100 46 33.1 61% 44 29.9 1012.8
03 02:54 NW 8 10.00 Fair CLR 46 33.1 61% 42 29.89 1012.3
03 01:54 NW 10 10.00 Fair CLR 48.9 32 55 48.9 52% 45 29.88 1012.1
03 00:54 NW 7 10.00 Fair CLR 50 33.1 52% 48 29.88 1012.1
02 23:54 NW 7 10.00 Fair CLR 52 32 47% 29.89 1012.3
02 22:54 NW 8 10.00 Fair CLR 53.1 33.1 47% 29.89 1012.2
02 21:54 NW 6 10.00 Fair CLR 52 34 50% 29.89 1012.2
02 20:54 NW 3 10.00 Fair CLR 53.1 33.1 47% 29.87 1011.8
02 19:54 N 5 10.00 Fair CLR 54 32 60.1 54 43% 29.86 1011.5
02 18:54 NW 6 10.00 Fair CLR 57 33.1 41% 29.86 1011.2
02 17:54 N 5 10.00 Mostly Cloudy BKN085 57 34 42% 29.86 1011.2
02 16:54 N 7 10.00 Mostly Cloudy BKN080 57.9 34 41% 29.85 1011.1
02 15:54 NW 12 10.00 Mostly Cloudy BKN075 57.9 33.1 39% 29.86 1011.3
02 14:54 NW 8 G 18 10.00 A Few Clouds FEW110 57.9 35.1 42% 29.88 1012.0
02 13:54 NW 9 10.00 Overcast OVC070 57.9 37 57.9 51.1 46% 29.9 1012.8
02 12:54 NW 9 10.00 Mostly Cloudy BKN070 57.9 37.9 48% 29.91 1012.9
02 11:54 NW 9 10.00 Mostly Cloudy BKN070 55.9 37.9 51% 29.93 1013.6
02 10:54 N 9 10.00 Partly Cloudy SCT060 55 39 55% 29.92 1013.5
02 09:54 N 8 10.00 Fair CLR 55 39 55% 29.92 1013.2
02 08:54 N 9 10.00 Fair CLR 53.1 44.1 72% 29.92 1013.3
02 07:54 N 6 10.00 Fair CLR 51.1 45 51.1 45 80% 29.92 1013.4
02 06:54 NW 5 10.00 Fair CLR 46.9 45 93% 45 29.92 1013.3
02 05:54 Calm 10.00 Fair CLR 46 44.1 93% 29.9 1012.7
02 04:54 Calm 10.00 Fair CLR 46.9 45 93% 29.89 1012.5
02 03:54 S 3 10.00 Partly Cloudy SCT110 46.9 44.1 90% 29.89 1012.4
02 02:54 Calm 10.00 Fair CLR 45 42.1 90% 29.89 1012.4
02 01:54 Calm 10.00 Fair CLR 46.9 43 55 45 86% 29.91 1013.1
02 00:54 S 5 10.00 Fair CLR 48 43 83% 47 29.93 1013.6
Date Time (edt) Wind (mph) Vis. (mi.) Weather Sky Cond. Air Dwpt Max. Min. Relative Humidity Wind Chill (°F) Heat Index (°F) altimeter (in) sea level (mb) 1 hr 3 hr 6 hr
6 hour
Temperature (ºF) Pressure Precipitation (in)